Terminal Aerodrome Forecast
Issued by NWS

Home | Current Version | Previous Version | Text Only | Print | Product List | Glossary On
Versions: 1 2 3 4 5 6 7 8 9 10 11 12 13 14 15 16 17 18
000
FTUS42 KTBW 312349
TAFPIE
TAF
KPIE 312349Z 0100/0124 22009KT P6SM VCSH SCT025 BKN100 BKN150
     FM010400 21008KT P6SM VCSH SCT020 SCT100 BKN200
     FM011300 21013KT P6SM VCSH SCT025 BKN150
     FM011600 22015G20KT P6SM VCTS SCT035CB BKN100 BKN150=

USA.gov is the U.S. government's official web portal to all federal, state and local government web resources and services.